createdAt,value
2018-11-04T00:01:17.123Z,79.01
2018-11-04T00:03:44.081Z,79.38
2018-11-04T00:06:11.004Z,80.23
2018-11-04T00:08:37.948Z,79.47
2018-11-04T00:11:05.315Z,79.94
2018-11-04T00:13:32.259Z,79.96
2018-11-04T00:15:59.191Z,80.56
2018-11-04T00:18:26.143Z,81.78
2018-11-04T00:20:53.090Z,81.92
2018-11-04T00:23:23.367Z,82.22
2018-11-04T00:25:50.263Z,82.70
2018-11-04T00:28:17.244Z,81.76
2018-11-04T00:30:44.367Z,81.83
2018-11-04T00:33:11.294Z,82.52
2018-11-04T00:35:39.174Z,81.69
2018-11-04T00:38:06.107Z,81.89
2018-11-04T00:40:33.059Z,82.63
2018-11-04T00:42:59.990Z,81.89
2018-11-04T00:45:27.006Z,82.59
2018-11-04T00:47:55.837Z,82.60
2018-11-04T00:50:23.815Z,83.36
2018-11-04T00:52:51.658Z,82.85
2018-11-04T00:55:18.647Z,83.13
2018-11-04T00:57:46.578Z,83.56
2018-11-04T01:00:16.370Z,82.93
2018-11-04T01:02:44.107Z,83.80
2018-11-04T01:05:11.015Z,82.25
2018-11-04T01:07:38.361Z,82.81
2018-11-04T01:10:08.260Z,82.49
2018-11-04T01:12:35.122Z,82.85
2018-11-04T01:15:02.074Z,82.60
2018-11-04T01:17:29.028Z,82.95
2018-11-04T01:19:55.976Z,83.04
2018-11-04T01:22:22.907Z,82.90
2018-11-04T01:24:49.844Z,83.53
2018-11-04T01:27:16.979Z,83.39
2018-11-04T01:29:43.959Z,83.30
2018-11-04T01:32:10.883Z,83.99
2018-11-04T01:34:37.831Z,83.02
2018-11-04T01:37:04.961Z,83.82
2018-11-04T01:39:31.928Z,83.04
2018-11-04T01:41:58.866Z,83.31
2018-11-04T01:44:25.806Z,83.62
2018-11-04T01:46:52.758Z,84.03
2018-11-04T01:49:19.695Z,84.20
2018-11-04T01:51:46.647Z,84.20
2018-11-04T01:54:13.591Z,84.83
2018-11-04T01:56:40.547Z,83.97
2018-11-04T01:59:07.487Z,84.31
2018-11-04T02:01:34.437Z,84.06
2018-11-04T02:04:01.370Z,83.39
2018-11-04T02:06:28.314Z,83.10
2018-11-04T02:08:55.271Z,83.10
2018-11-04T02:11:22.210Z,83.71
2018-11-04T02:13:49.172Z,83.33
2018-11-04T02:16:16.143Z,82.84
2018-11-04T02:18:43.040Z,83.02
2018-11-04T02:21:10.002Z,83.74
2018-11-04T02:23:36.946Z,83.24
2018-11-04T02:26:03.875Z,83.38
2018-11-04T02:28:31.853Z,82.26
2018-11-04T02:30:58.908Z,82.86
2018-11-04T02:33:27.783Z,82.87
2018-11-04T02:35:54.725Z,82.98
2018-11-04T02:38:21.677Z,82.85
2018-11-04T02:40:49.642Z,83.92
2018-11-04T02:43:16.587Z,84.20
2018-11-04T02:45:43.547Z,84.33
2018-11-04T02:48:10.471Z,83.64
2018-11-04T02:50:37.414Z,83.84
2018-11-04T02:53:04.701Z,83.60
2018-11-04T02:55:31.623Z,83.09
2018-11-04T02:57:58.559Z,82.81
2018-11-04T03:00:25.523Z,83.23
2018-11-04T03:02:52.502Z,83.08
2018-11-04T03:05:19.470Z,83.23
2018-11-04T03:07:46.456Z,83.58
2018-11-04T03:10:14.187Z,84.32
2018-11-04T03:12:41.175Z,83.40
2018-11-04T03:15:08.124Z,83.62
2018-11-04T03:17:35.226Z,82.57
2018-11-04T03:20:02.195Z,82.42
2018-11-04T03:22:29.130Z,82.78
2018-11-04T03:24:56.079Z,83.03
2018-11-04T03:27:24.076Z,83.53
2018-11-04T03:29:51.006Z,84.63
2018-11-04T03:32:18.083Z,83.92
2018-11-04T03:34:45.041Z,84.94
2018-11-04T03:37:11.907Z,84.70
2018-11-04T03:39:38.875Z,84.67
2018-11-04T03:42:05.865Z,84.39
2018-11-04T03:44:32.782Z,84.05
2018-11-04T03:46:59.711Z,83.58
2018-11-04T03:49:26.660Z,84.18
2018-11-04T03:51:54.523Z,83.46
2018-11-04T03:54:21.458Z,83.89
2018-11-04T03:56:49.323Z,83.56
2018-11-04T03:59:16.274Z,83.71
2018-11-04T04:01:43.226Z,83.70
2018-11-04T04:04:10.151Z,84.26
2018-11-04T04:06:37.116Z,84.55
2018-11-04T04:09:06.360Z,83.84
2018-11-04T04:11:33.244Z,83.11
2018-11-04T04:14:01.120Z,84.26
2018-11-04T04:16:28.067Z,84.41
2018-11-04T04:18:55.940Z,84.46
2018-11-04T04:21:22.866Z,83.63
2018-11-04T04:23:49.827Z,83.51
2018-11-04T04:26:16.767Z,84.13
2018-11-04T04:28:43.703Z,84.82
2018-11-04T04:31:10.670Z,84.34
2018-11-04T04:33:37.599Z,85.31
2018-11-04T04:36:04.968Z,85.17
2018-11-04T04:38:31.895Z,85.65
2018-11-04T04:40:58.855Z,84.99
2018-11-04T04:43:25.785Z,85.88
2018-11-04T04:45:52.756Z,85.00
2018-11-04T04:48:19.721Z,85.67
2018-11-04T04:50:46.622Z,85.29
2018-11-04T04:53:13.601Z,86.26
2018-11-04T04:55:40.543Z,86.09
2018-11-04T04:58:07.475Z,85.95
2018-11-04T05:00:34.391Z,85.90
2018-11-04T05:03:01.400Z,85.16
2018-11-04T05:05:28.335Z,84.50
2018-11-04T05:07:55.214Z,84.58
2018-11-04T05:10:22.179Z,84.71
2018-11-04T05:12:49.139Z,84.37
2018-11-04T05:15:16.063Z,84.26
2018-11-04T05:17:43.007Z,84.51
2018-11-04T05:20:09.953Z,85.13
2018-11-04T05:22:36.906Z,85.89
2018-11-04T05:25:04.383Z,85.36
2018-11-04T05:27:31.308Z,86.52
2018-11-04T05:29:58.259Z,85.64
2018-11-04T05:32:25.195Z,85.94
2018-11-04T05:34:53.159Z,85.69
2018-11-04T05:37:20.103Z,85.67
2018-11-04T05:39:48.011Z,84.72
2018-11-04T05:42:14.914Z,85.32
2018-11-04T05:44:41.935Z,84.67
2018-11-04T05:47:08.924Z,84.84
2018-11-04T05:49:37.270Z,85.37
2018-11-04T05:52:04.228Z,83.95
2018-11-04T05:54:31.175Z,84.95
2018-11-04T05:56:58.126Z,84.62
2018-11-04T05:59:25.067Z,83.97
2018-11-04T06:01:52.012Z,83.99
2018-11-04T06:04:18.855Z,85.06
2018-11-04T06:06:45.791Z,85.08
2018-11-04T06:09:12.774Z,85.06
2018-11-04T06:11:39.772Z,85.01
2018-11-04T06:14:06.731Z,85.20
2018-11-04T06:16:33.678Z,85.87
2018-11-04T06:19:00.635Z,85.49
2018-11-04T06:21:27.587Z,85.26
2018-11-04T06:23:54.571Z,85.46
2018-11-04T06:26:21.450Z,86.36
2018-11-04T06:28:48.399Z,86.27
2018-11-04T06:31:15.355Z,86.41
2018-11-04T06:33:42.321Z,86.45
2018-11-04T06:36:09.299Z,87.02
2018-11-04T06:38:36.178Z,86.14
2018-11-04T06:41:03.232Z,85.97
2018-11-04T06:43:30.104Z,85.90
2018-11-04T06:45:57.008Z,85.80
2018-11-04T06:48:23.954Z,84.40
2018-11-04T06:50:50.898Z,84.65
2018-11-04T06:53:17.851Z,83.76
2018-11-04T06:55:44.786Z,84.72
2018-11-04T06:58:11.739Z,84.90
2018-11-04T07:00:38.679Z,85.83
2018-11-04T07:03:05.626Z,85.05
2018-11-04T07:05:32.581Z,85.50
2018-11-04T07:07:59.523Z,85.36
2018-11-04T07:10:26.476Z,85.54
2018-11-04T07:12:54.522Z,85.40
2018-11-04T07:15:22.296Z,85.22
2018-11-04T07:17:49.539Z,84.45
2018-11-04T07:20:16.526Z,84.49
2018-11-04T07:22:43.439Z,84.45
2018-11-04T07:25:10.408Z,83.18
2018-11-04T07:27:37.374Z,83.14
2018-11-04T07:30:06.186Z,84.83
2018-11-04T07:32:33.087Z,84.85
2018-11-04T07:35:00.050Z,84.10
2018-11-04T07:37:26.971Z,84.46
2018-11-04T07:39:53.895Z,84.16
2018-11-04T07:42:20.846Z,83.96
2018-11-04T07:44:47.775Z,83.91
2018-11-04T07:47:14.760Z,83.19
2018-11-04T07:49:41.671Z,82.56
2018-11-04T07:52:08.619Z,83.31
2018-11-04T07:54:35.617Z,83.59
2018-11-04T07:57:02.580Z,84.20
2018-11-04T07:59:29.455Z,84.18
2018-11-04T08:01:56.403Z,83.80
2018-11-04T08:04:23.351Z,84.85
2018-11-04T08:06:50.323Z,84.85
2018-11-04T08:09:17.235Z,84.05
2018-11-04T08:11:45.141Z,83.74
2018-11-04T08:14:12.059Z,83.31
2018-11-04T08:16:39.031Z,84.29
2018-11-04T08:19:05.939Z,84.02
2018-11-04T08:21:32.871Z,84.00
2018-11-04T08:23:59.843Z,83.00
2018-11-04T08:26:26.779Z,83.68
2018-11-04T08:28:53.722Z,84.03
2018-11-04T08:31:20.663Z,83.53
2018-11-04T08:33:47.642Z,84.47
2018-11-04T08:36:14.631Z,83.01
2018-11-04T08:38:41.623Z,83.32
2018-11-04T08:41:08.608Z,82.53
2018-11-04T08:43:35.544Z,82.06
2018-11-04T08:46:02.498Z,81.98
2018-11-04T08:48:29.372Z,81.56
2018-11-04T08:50:56.351Z,82.26
2018-11-04T08:53:23.267Z,81.45
2018-11-04T08:55:50.240Z,82.35
2018-11-04T08:58:17.159Z,81.31
2018-11-04T09:00:44.099Z,82.24
2018-11-04T09:03:11.971Z,81.56
2018-11-04T09:05:38.919Z,81.68
2018-11-04T09:08:05.867Z,82.03
2018-11-04T09:10:32.949Z,81.49
2018-11-04T09:12:59.847Z,81.17
2018-11-04T09:15:26.797Z,81.01
2018-11-04T09:17:53.738Z,80.64
2018-11-04T09:20:20.683Z,80.95
2018-11-04T09:22:47.676Z,81.78
2018-11-04T09:25:14.622Z,80.68
2018-11-04T09:27:42.553Z,81.66
2018-11-04T09:30:11.542Z,81.51
2018-11-04T09:32:38.523Z,81.72
2018-11-04T09:35:05.900Z,81.07
2018-11-04T09:37:32.679Z,80.56
2018-11-04T09:39:59.631Z,81.28
2018-11-04T09:42:26.567Z,81.60
2018-11-04T09:44:54.530Z,80.77
2018-11-04T09:47:21.499Z,81.05
2018-11-04T09:49:48.532Z,81.23
2018-11-04T09:52:17.537Z,80.33
2018-11-04T09:54:44.475Z,81.92
2018-11-04T09:57:11.407Z,80.60
2018-11-04T09:59:38.372Z,80.74
2018-11-04T10:02:05.315Z,80.85
2018-11-04T10:04:32.246Z,80.53
2018-11-04T10:06:59.237Z,80.44
2018-11-04T10:09:26.136Z,80.04
2018-11-04T10:11:53.103Z,80.69
2018-11-04T10:14:20.079Z,79.65
2018-11-04T10:16:46.958Z,79.45
2018-11-04T10:19:14.049Z,78.65
2018-11-04T10:21:40.936Z,79.22
2018-11-04T10:24:07.935Z,79.05
2018-11-04T10:26:34.863Z,79.06
2018-11-04T10:29:01.899Z,78.51
2018-11-04T10:31:28.835Z,78.35
2018-11-04T10:33:55.775Z,78.69
2018-11-04T10:36:22.760Z,78.41
2018-11-04T10:38:49.740Z,78.42
2018-11-04T10:41:16.617Z,78.76
2018-11-04T10:43:43.555Z,78.59
2018-11-04T10:46:10.503Z,78.82
2018-11-04T10:48:37.446Z,77.83
2018-11-04T10:51:04.772Z,79.29
2018-11-04T10:53:31.651Z,78.40
2018-11-04T10:55:58.664Z,78.01
2018-11-04T10:58:25.532Z,78.90
2018-11-04T11:00:58.321Z,77.59
2018-11-04T11:03:25.302Z,77.78
2018-11-04T11:05:52.230Z,76.85
2018-11-04T11:08:19.182Z,76.31
2018-11-04T11:10:46.178Z,77.31
2018-11-04T11:13:13.110Z,77.12
2018-11-04T11:15:39.988Z,77.08
2018-11-04T11:18:06.935Z,76.77
2018-11-04T11:20:33.877Z,76.57
2018-11-04T11:23:01.093Z,77.06
2018-11-04T11:25:27.772Z,75.68
2018-11-04T11:27:54.711Z,77.23
2018-11-04T11:30:21.731Z,77.15
2018-11-04T11:32:48.619Z,75.25
2018-11-04T11:35:17.486Z,76.75
2018-11-04T11:37:44.458Z,75.30
2018-11-04T11:40:11.383Z,75.86
2018-11-04T11:42:38.375Z,75.21
2018-11-04T11:45:05.524Z,75.58
2018-11-04T11:47:32.467Z,76.09
2018-11-04T11:49:59.354Z,76.48
2018-11-04T11:52:26.329Z,75.69
2018-11-04T11:54:53.260Z,77.35
2018-11-04T11:57:20.219Z,76.45
2018-11-04T11:59:47.144Z,76.63
2018-11-04T12:02:14.127Z,75.93
2018-11-04T12:04:41.151Z,74.18
2018-11-04T12:07:08.144Z,74.52
2018-11-04T12:09:35.027Z,74.14
2018-11-04T12:12:01.975Z,74.06
2018-11-04T12:14:28.915Z,74.45
2018-11-04T12:16:55.867Z,76.12
2018-11-04T12:19:22.813Z,76.78
2018-11-04T12:21:49.772Z,76.36
2018-11-04T12:24:16.735Z,76.02
2018-11-04T12:26:43.668Z,76.50
2018-11-04T12:29:10.648Z,75.53
2018-11-04T12:31:37.588Z,75.07
2018-11-04T12:34:04.825Z,74.46
2018-11-04T12:36:31.739Z,74.36
2018-11-04T12:38:59.701Z,73.59
2018-11-04T12:41:26.660Z,73.11
2018-11-04T12:43:53.583Z,73.42
2018-11-04T12:46:20.531Z,73.85
2018-11-04T12:48:47.507Z,73.94
2018-11-04T12:51:14.457Z,74.52
2018-11-04T12:53:41.381Z,75.15
2018-11-04T12:56:08.315Z,76.32
2018-11-04T12:58:35.252Z,75.04
2018-11-04T13:01:02.201Z,74.17
2018-11-04T13:03:29.139Z,74.52
2018-11-04T13:05:56.143Z,74.56
2018-11-04T13:08:23.047Z,73.75
2018-11-04T13:10:49.969Z,75.13
2018-11-04T13:13:16.866Z,74.87
2018-11-04T13:15:43.795Z,75.45
2018-11-04T13:18:10.746Z,74.79
2018-11-04T13:20:37.685Z,75.21
2018-11-04T13:23:04.678Z,75.39
2018-11-04T13:25:31.590Z,74.47
2018-11-04T13:27:59.434Z,75.82
2018-11-04T13:30:26.374Z,75.53
2018-11-04T13:32:53.223Z,77.01
2018-11-04T13:35:20.206Z,77.04
2018-11-04T13:37:47.121Z,77.72
2018-11-04T13:40:14.063Z,78.53
2018-11-04T13:42:41.516Z,78.34
2018-11-04T13:45:09.077Z,78.07
2018-11-04T13:47:36.118Z,78.21
2018-11-04T13:50:03.282Z,78.10
2018-11-04T13:52:30.215Z,77.25
2018-11-04T13:54:57.075Z,77.59
2018-11-04T13:57:24.019Z,78.14
2018-11-04T13:59:50.966Z,78.40
2018-11-04T14:02:17.971Z,78.11
2018-11-04T14:04:44.834Z,77.31
2018-11-04T14:07:11.699Z,77.35
2018-11-04T14:09:38.628Z,77.64
2018-11-04T14:12:05.459Z,77.68
2018-11-04T14:14:32.331Z,77.79
2018-11-04T14:16:59.255Z,78.14
2018-11-04T14:19:26.214Z,78.27
2018-11-04T14:21:53.142Z,76.89
2018-11-04T14:24:20.088Z,77.86
2018-11-04T14:26:46.951Z,78.45
2018-11-04T14:29:13.883Z,77.36
2018-11-04T14:31:40.817Z,77.44
2018-11-04T14:34:07.694Z,78.33
2018-11-04T14:36:34.606Z,78.00
2018-11-04T14:39:01.467Z,78.43
2018-11-04T14:41:28.394Z,78.29
2018-11-04T14:43:55.344Z,77.85
2018-11-04T14:46:22.283Z,78.10
2018-11-04T14:48:49.150Z,78.32
2018-11-04T14:51:16.075Z,77.98
2018-11-04T14:53:43.023Z,78.29
2018-11-04T14:56:09.962Z,79.01
2018-11-04T14:58:36.811Z,78.84
2018-11-04T15:01:04.748Z,79.08
2018-11-04T15:03:31.611Z,79.09
2018-11-04T15:05:58.454Z,79.06
2018-11-04T15:08:25.314Z,78.53
2018-11-04T15:10:52.309Z,78.88
2018-11-04T15:13:19.267Z,79.22
2018-11-04T15:15:46.143Z,79.37
2018-11-04T15:18:13.078Z,78.42
2018-11-04T15:20:39.927Z,79.29
2018-11-04T15:23:06.872Z,80.00
2018-11-04T15:25:33.826Z,79.38
2018-11-04T15:28:00.759Z,78.74
2018-11-04T15:30:27.703Z,79.37
2018-11-04T15:32:54.649Z,79.98
2018-11-04T15:35:22.463Z,79.38
2018-11-04T15:37:49.406Z,79.86
2018-11-04T15:40:16.732Z,80.69
2018-11-04T15:42:43.550Z,80.01
2018-11-04T15:45:11.636Z,80.94
2018-11-04T15:47:38.761Z,81.19
2018-11-04T15:50:07.158Z,80.76
2018-11-04T15:52:33.985Z,80.53
2018-11-04T15:55:00.900Z,81.00
2018-11-04T15:57:28.498Z,80.59
2018-11-04T15:59:55.368Z,82.06
2018-11-04T16:02:22.299Z,81.70
2018-11-04T16:04:49.230Z,82.06
2018-11-04T16:07:16.323Z,82.28
2018-11-04T16:09:43.267Z,82.18
2018-11-04T16:12:10.523Z,82.68
2018-11-04T16:14:37.720Z,82.23
2018-11-04T16:17:04.595Z,82.74
2018-11-04T16:19:31.842Z,81.96
2018-11-04T16:21:59.989Z,82.67
2018-11-04T16:24:26.847Z,82.22
2018-11-04T16:26:54.845Z,82.25
2018-11-04T16:29:21.926Z,81.78
2018-11-04T16:31:48.856Z,82.66
2018-11-04T16:34:15.669Z,82.09
2018-11-04T16:36:42.570Z,82.40
2018-11-04T16:39:09.434Z,81.79
2018-11-04T16:41:36.462Z,81.99
2018-11-04T16:44:03.584Z,82.93
2018-11-04T16:46:30.504Z,82.14
2018-11-04T16:48:57.752Z,82.65
2018-11-04T16:51:25.647Z,82.81
2018-11-04T16:53:52.551Z,82.64
2018-11-04T16:56:19.520Z,82.39
2018-11-04T16:58:46.323Z,83.26
2018-11-04T17:01:13.263Z,82.83
2018-11-04T17:03:40.314Z,82.67
2018-11-04T17:06:07.270Z,83.19
2018-11-04T17:08:34.204Z,82.99
2018-11-04T17:11:01.145Z,83.93
2018-11-04T17:13:28.123Z,83.89
2018-11-04T17:15:55.074Z,84.02
2018-11-04T17:18:21.985Z,83.56
2018-11-04T17:20:48.839Z,83.26
2018-11-04T17:23:15.802Z,83.88
2018-11-04T17:25:42.787Z,84.23
2018-11-04T17:28:09.695Z,83.73
2018-11-04T17:30:37.622Z,83.51
2018-11-04T17:33:05.298Z,83.68
2018-11-04T17:35:32.095Z,84.13
2018-11-04T17:37:58.991Z,84.15
2018-11-04T17:40:25.922Z,83.74
2018-11-04T17:42:52.894Z,84.33
2018-11-04T17:45:19.873Z,84.59
2018-11-04T17:47:47.103Z,84.25
2018-11-04T17:50:16.355Z,84.50
2018-11-04T17:52:43.822Z,84.56
2018-11-04T17:55:10.791Z,84.60
2018-11-04T17:57:37.706Z,84.75
2018-11-04T18:00:05.800Z,84.73
2018-11-04T18:02:32.626Z,84.49
2018-11-04T18:04:59.798Z,83.98
2018-11-04T18:07:26.890Z,84.59
2018-11-04T18:09:53.769Z,84.79
2018-11-04T18:12:20.708Z,84.15
2018-11-04T18:14:47.646Z,85.04
2018-11-04T18:17:14.512Z,84.81
2018-11-04T18:19:41.435Z,84.49
2018-11-04T18:22:08.394Z,85.28
2018-11-04T18:24:36.243Z,85.45
2018-11-04T18:27:03.211Z,84.72
2018-11-04T18:29:30.163Z,84.47
2018-11-04T18:31:57.113Z,84.37
2018-11-04T18:34:23.947Z,85.49
2018-11-04T18:36:50.871Z,85.24
2018-11-04T18:39:17.814Z,84.16
2018-11-04T18:41:44.755Z,83.92
2018-11-04T18:44:11.645Z,84.83
2018-11-04T18:46:38.546Z,84.08
2018-11-04T18:49:05.695Z,84.22
2018-11-04T18:51:32.631Z,84.29
2018-11-04T18:53:59.479Z,84.54
2018-11-04T18:56:26.338Z,84.86
2018-11-04T18:58:53.309Z,84.54
2018-11-04T19:01:20.235Z,84.49
2018-11-04T19:03:47.162Z,84.20
2018-11-04T19:06:14.099Z,83.83
2018-11-04T19:08:40.962Z,84.89
2018-11-04T19:11:07.973Z,84.21
2018-11-04T19:13:35.298Z,83.89
2018-11-04T19:16:02.197Z,84.02
2018-11-04T19:18:29.138Z,84.50
2018-11-04T19:20:56.007Z,83.56
2018-11-04T19:23:23.143Z,84.30
2018-11-04T19:25:50.082Z,83.73
2018-11-04T19:28:17.027Z,84.17
2018-11-04T19:30:43.973Z,84.00
2018-11-04T19:33:10.815Z,85.04
2018-11-04T19:35:37.750Z,84.45
2018-11-04T19:38:04.750Z,84.85
2018-11-04T19:40:31.688Z,84.15
2018-11-04T19:42:58.680Z,85.03
2018-11-04T19:45:25.466Z,84.69
2018-11-04T19:47:52.529Z,84.61
2018-11-04T19:50:19.576Z,84.52
2018-11-04T19:52:46.473Z,85.49
2018-11-04T19:55:13.422Z,85.13
2018-11-04T19:57:40.406Z,84.80
2018-11-04T20:00:08.679Z,84.69
2018-11-04T20:02:35.578Z,84.75
2018-11-04T20:05:02.518Z,84.79
2018-11-04T20:07:29.370Z,84.83
2018-11-04T20:09:56.323Z,85.42
2018-11-04T20:12:28.955Z,85.33
2018-11-04T20:14:55.838Z,84.62
2018-11-04T20:17:22.790Z,84.80
2018-11-04T20:19:55.474Z,85.69
2018-11-04T20:22:22.402Z,85.54
2018-11-04T20:24:55.062Z,85.02
2018-11-04T20:27:21.919Z,84.64
2018-11-04T20:29:48.899Z,85.15
2018-11-04T20:32:21.590Z,85.28
2018-11-04T20:34:48.478Z,85.79
2018-11-04T20:37:15.343Z,84.71
2018-11-04T20:39:49.211Z,84.85
2018-11-04T20:42:16.093Z,84.75
2018-11-04T20:44:44.575Z,84.81
2018-11-04T20:47:11.594Z,84.78
2018-11-04T20:49:44.558Z,84.89
2018-11-04T20:52:11.426Z,85.74
2018-11-04T20:54:38.279Z,86.06
2018-11-04T20:57:11.074Z,85.03
2018-11-04T20:59:38.002Z,86.12
2018-11-04T21:02:04.958Z,86.26
2018-11-04T21:04:31.795Z,86.06
2018-11-04T21:06:58.748Z,85.76
2018-11-04T21:09:25.683Z,85.49
2018-11-04T21:11:52.544Z,84.98
2018-11-04T21:14:19.479Z,85.17
2018-11-04T21:16:46.618Z,84.95
2018-11-04T21:19:13.351Z,85.40
2018-11-04T21:21:40.269Z,84.77
2018-11-04T21:24:07.155Z,84.60
2018-11-04T21:26:34.099Z,84.84
2018-11-04T21:29:01.245Z,84.49
2018-11-04T21:31:28.037Z,84.61
2018-11-04T21:33:54.922Z,85.19
2018-11-04T21:36:23.282Z,83.95
2018-11-04T21:38:50.067Z,84.52
2018-11-04T21:41:16.995Z,85.40
2018-11-04T21:43:44.204Z,84.98
2018-11-04T21:46:10.789Z,84.72
2018-11-04T21:48:37.734Z,85.10
2018-11-04T21:51:04.708Z,85.42
2018-11-04T21:53:31.530Z,85.28
2018-11-04T21:55:58.541Z,85.56
2018-11-04T21:58:25.307Z,84.53
2018-11-04T22:00:52.242Z,85.12
2018-11-04T22:03:19.288Z,84.55
2018-11-04T22:05:46.142Z,85.13
2018-11-04T22:08:13.078Z,85.19
2018-11-04T22:10:40.153Z,85.12
2018-11-04T22:13:06.980Z,84.93
2018-11-04T22:15:33.907Z,85.32
2018-11-04T22:18:00.767Z,84.71
2018-11-04T22:20:27.697Z,85.88
2018-11-04T22:22:54.642Z,85.36
2018-11-04T22:25:21.482Z,85.36
2018-11-04T22:27:48.423Z,85.91
2018-11-04T22:30:15.287Z,86.18
2018-11-04T22:32:42.212Z,85.96
2018-11-04T22:35:10.337Z,85.55
2018-11-04T22:37:37.530Z,85.39
2018-11-04T22:40:05.559Z,85.27
2018-11-04T22:42:32.446Z,86.18
2018-11-04T22:44:59.298Z,85.57
2018-11-04T22:47:26.234Z,85.28
2018-11-04T22:49:53.187Z,84.79
2018-11-04T22:52:20.127Z,85.08
2018-11-04T22:54:46.986Z,85.68
2018-11-04T22:57:13.915Z,86.41
2018-11-04T22:59:40.862Z,85.47
2018-11-04T23:02:07.802Z,86.18
2018-11-04T23:04:40.488Z,85.69
2018-11-04T23:07:07.483Z,86.38
2018-11-04T23:09:34.382Z,86.37
2018-11-04T23:12:01.324Z,86.39
2018-11-04T23:14:28.262Z,86.14
2018-11-04T23:16:55.123Z,85.68
2018-11-04T23:19:22.054Z,85.85
2018-11-04T23:21:48.993Z,85.73
2018-11-04T23:24:15.861Z,85.67
2018-11-04T23:26:42.779Z,85.50
2018-11-04T23:29:09.728Z,85.57
2018-11-04T23:31:36.586Z,85.52
2018-11-04T23:34:03.686Z,86.33
2018-11-04T23:36:30.575Z,85.66
2018-11-04T23:38:57.512Z,86.18
2018-11-04T23:41:24.444Z,85.43
2018-11-04T23:43:51.306Z,85.19
2018-11-04T23:46:18.238Z,85.67
2018-11-04T23:48:45.290Z,85.98
2018-11-04T23:51:12.227Z,86.00
2018-11-04T23:53:39.086Z,85.80
2018-11-04T23:56:06.010Z,86.00
2018-11-04T23:58:32.874Z,84.98
